sensor_id;sensor_type;location;lat;lon;timestamp;temperature;humidity
68485;DHT22;55472;50.060;21.960;2023-09-19T00:00:46;18.20;99.90
68485;DHT22;55472;50.060;21.960;2023-09-19T00:03:32;18.20;99.90
68485;DHT22;55472;50.060;21.960;2023-09-19T00:05:59;18.20;99.90
68485;DHT22;55472;50.060;21.960;2023-09-19T00:08:25;18.10;99.90
68485;DHT22;55472;50.060;21.960;2023-09-19T00:10:52;18.10;99.90
68485;DHT22;55472;50.060;21.960;2023-09-19T00:13:20;18.10;99.90
68485;DHT22;55472;50.060;21.960;2023-09-19T00:15:48;18.10;99.90
68485;DHT22;55472;50.060;21.960;2023-09-19T00:18:14;18.10;99.90
68485;DHT22;55472;50.060;21.960;2023-09-19T00:20:47;18.20;99.90
68485;DHT22;55472;50.060;21.960;2023-09-19T00:23:14;18.20;99.90
68485;DHT22;55472;50.060;21.960;2023-09-19T00:25:41;18.10;99.90
68485;DHT22;55472;50.060;21.960;2023-09-19T00:28:07;18.10;99.90
68485;DHT22;55472;50.060;21.960;2023-09-19T00:30:34;18.10;99.90
68485;DHT22;55472;50.060;21.960;2023-09-19T00:33:00;18.00;99.90
68485;DHT22;55472;50.060;21.960;2023-09-19T00:35:31;18.00;99.90
68485;DHT22;55472;50.060;21.960;2023-09-19T00:37:58;18.00;99.90
68485;DHT22;55472;50.060;21.960;2023-09-19T00:40:25;17.90;99.90
68485;DHT22;55472;50.060;21.960;2023-09-19T00:42:52;17.90;99.90
68485;DHT22;55472;50.060;21.960;2023-09-19T00:45:25;17.90;99.90
68485;DHT22;55472;50.060;21.960;2023-09-19T00:47:51;17.80;99.90
68485;DHT22;55472;50.060;21.960;2023-09-19T00:50:20;17.80;99.90
68485;DHT22;55472;50.060;21.960;2023-09-19T00:52:50;17.80;99.90
68485;DHT22;55472;50.060;21.960;2023-09-19T00:55:17;17.80;99.90
68485;DHT22;55472;50.060;21.960;2023-09-19T00:57:47;17.70;99.90
68485;DHT22;55472;50.060;21.960;2023-09-19T01:00:16;17.70;99.90
68485;DHT22;55472;50.060;21.960;2023-09-19T01:02:45;17.70;99.90
68485;DHT22;55472;50.060;21.960;2023-09-19T01:05:13;17.70;99.90
68485;DHT22;55472;50.060;21.960;2023-09-19T01:07:42;17.70;99.90
68485;DHT22;55472;50.060;21.960;2023-09-19T01:10:13;17.60;99.90
68485;DHT22;55472;50.060;21.960;2023-09-19T01:13:05;17.60;99.90
68485;DHT22;55472;50.060;21.960;2023-09-19T01:16:04;17.70;99.90
68485;DHT22;55472;50.060;21.960;2023-09-19T01:24:38;17.70;99.90
68485;DHT22;55472;50.060;21.960;2023-09-19T01:30:40;17.70;99.90
68485;DHT22;55472;50.060;21.960;2023-09-19T01:33:10;17.70;99.90
68485;DHT22;55472;50.060;21.960;2023-09-19T01:35:39;17.80;99.90
68485;DHT22;55472;50.060;21.960;2023-09-19T01:38:08;17.80;99.90
68485;DHT22;55472;50.060;21.960;2023-09-19T01:40:43;17.80;99.90
68485;DHT22;55472;50.060;21.960;2023-09-19T01:43:22;17.90;99.90
68485;DHT22;55472;50.060;21.960;2023-09-19T01:52:13;17.90;99.90
68485;DHT22;55472;50.060;21.960;2023-09-19T01:54:52;18.00;99.90
68485;DHT22;55472;50.060;21.960;2023-09-19T02:00:18;18.10;99.90
68485;DHT22;55472;50.060;21.960;2023-09-19T02:02:50;18.10;99.90
68485;DHT22;55472;50.060;21.960;2023-09-19T02:05:25;18.10;99.90
68485;DHT22;55472;50.060;21.960;2023-09-19T02:07:54;18.10;99.90
68485;DHT22;55472;50.060;21.960;2023-09-19T02:10:22;18.20;99.90
68485;DHT22;55472;50.060;21.960;2023-09-19T02:12:50;18.20;99.90
68485;DHT22;55472;50.060;21.960;2023-09-19T02:15:16;18.30;99.90
68485;DHT22;55472;50.060;21.960;2023-09-19T02:17:43;18.40;99.90
68485;DHT22;55472;50.060;21.960;2023-09-19T02:20:11;18.40;99.90
68485;DHT22;55472;50.060;21.960;2023-09-19T02:22:43;18.50;99.90
68485;DHT22;55472;50.060;21.960;2023-09-19T02:25:10;18.50;99.90
68485;DHT22;55472;50.060;21.960;2023-09-19T02:27:37;18.60;99.90
68485;DHT22;55472;50.060;21.960;2023-09-19T02:30:04;18.60;99.90
68485;DHT22;55472;50.060;21.960;2023-09-19T02:32:31;18.70;99.90
68485;DHT22;55472;50.060;21.960;2023-09-19T02:35:01;18.70;99.90
68485;DHT22;55472;50.060;21.960;2023-09-19T02:37:27;18.70;99.90
68485;DHT22;55472;50.060;21.960;2023-09-19T02:39:54;18.80;99.90
68485;DHT22;55472;50.060;21.960;2023-09-19T02:42:20;18.90;99.90
68485;DHT22;55472;50.060;21.960;2023-09-19T02:44:46;18.90;99.70
68485;DHT22;55472;50.060;21.960;2023-09-19T02:47:13;18.90;99.90
68485;DHT22;55472;50.060;21.960;2023-09-19T02:49:40;18.90;99.90
68485;DHT22;55472;50.060;21.960;2023-09-19T02:52:08;18.90;99.90
68485;DHT22;55472;50.060;21.960;2023-09-19T02:54:34;19.00;99.40
68485;DHT22;55472;50.060;21.960;2023-09-19T02:57:00;19.00;99.90
68485;DHT22;55472;50.060;21.960;2023-09-19T02:59:27;19.00;99.80
68485;DHT22;55472;50.060;21.960;2023-09-19T03:01:54;18.90;99.90
68485;DHT22;55472;50.060;21.960;2023-09-19T03:04:20;19.00;99.60
68485;DHT22;55472;50.060;21.960;2023-09-19T03:06:47;19.00;98.60
68485;DHT22;55472;50.060;21.960;2023-09-19T03:09:14;19.00;98.90
68485;DHT22;55472;50.060;21.960;2023-09-19T03:11:41;19.10;98.80
68485;DHT22;55472;50.060;21.960;2023-09-19T03:14:08;19.10;98.40
68485;DHT22;55472;50.060;21.960;2023-09-19T03:16:35;19.10;98.40
68485;DHT22;55472;50.060;21.960;2023-09-19T03:19:03;19.20;98.30
68485;DHT22;55472;50.060;21.960;2023-09-19T03:21:30;19.20;98.20
68485;DHT22;55472;50.060;21.960;2023-09-19T03:23:57;19.20;97.40
68485;DHT22;55472;50.060;21.960;2023-09-19T03:26:23;19.20;97.20
68485;DHT22;55472;50.060;21.960;2023-09-19T03:28:49;19.30;97.10
68485;DHT22;55472;50.060;21.960;2023-09-19T03:31:15;19.30;97.00
68485;DHT22;55472;50.060;21.960;2023-09-19T03:33:41;19.30;96.50
68485;DHT22;55472;50.060;21.960;2023-09-19T03:36:07;19.40;96.50
68485;DHT22;55472;50.060;21.960;2023-09-19T03:38:34;19.40;96.20
68485;DHT22;55472;50.060;21.960;2023-09-19T03:41:01;19.40;96.60
68485;DHT22;55472;50.060;21.960;2023-09-19T03:43:28;19.40;96.80
68485;DHT22;55472;50.060;21.960;2023-09-19T03:45:54;19.40;97.90
68485;DHT22;55472;50.060;21.960;2023-09-19T03:48:20;19.40;99.90
68485;DHT22;55472;50.060;21.960;2023-09-19T03:50:47;19.40;99.90
68485;DHT22;55472;50.060;21.960;2023-09-19T03:53:14;19.30;99.90
68485;DHT22;55472;50.060;21.960;2023-09-19T03:55:40;19.20;99.90
68485;DHT22;55472;50.060;21.960;2023-09-19T03:58:06;19.10;99.90
68485;DHT22;55472;50.060;21.960;2023-09-19T04:00:32;18.90;99.90
68485;DHT22;55472;50.060;21.960;2023-09-19T04:03:00;18.90;99.90
68485;DHT22;55472;50.060;21.960;2023-09-19T04:05:31;18.80;99.90
68485;DHT22;55472;50.060;21.960;2023-09-19T04:07:57;18.70;99.90
68485;DHT22;55472;50.060;21.960;2023-09-19T04:10:23;18.60;99.90
68485;DHT22;55472;50.060;21.960;2023-09-19T04:12:56;18.50;99.90
68485;DHT22;55472;50.060;21.960;2023-09-19T04:15:23;18.40;99.90
68485;DHT22;55472;50.060;21.960;2023-09-19T04:17:50;18.40;99.90
68485;DHT22;55472;50.060;21.960;2023-09-19T04:20:20;18.30;99.90
68485;DHT22;55472;50.060;21.960;2023-09-19T04:22:49;18.30;99.90
68485;DHT22;55472;50.060;21.960;2023-09-19T04:25:15;18.20;99.90
68485;DHT22;55472;50.060;21.960;2023-09-19T04:27:42;18.20;99.90
68485;DHT22;55472;50.060;21.960;2023-09-19T04:30:08;18.20;99.90
68485;DHT22;55472;50.060;21.960;2023-09-19T04:32:37;18.10;99.90
68485;DHT22;55472;50.060;21.960;2023-09-19T04:35:09;18.10;99.90
68485;DHT22;55472;50.060;21.960;2023-09-19T04:37:37;18.10;99.90
68485;DHT22;55472;50.060;21.960;2023-09-19T04:40:09;18.10;99.90
68485;DHT22;55472;50.060;21.960;2023-09-19T04:42:40;18.10;99.90
68485;DHT22;55472;50.060;21.960;2023-09-19T04:45:07;18.10;99.90
68485;DHT22;55472;50.060;21.960;2023-09-19T04:47:36;18.10;99.90
68485;DHT22;55472;50.060;21.960;2023-09-19T04:50:08;18.10;99.90
68485;DHT22;55472;50.060;21.960;2023-09-19T04:52:42;18.00;99.90
68485;DHT22;55472;50.060;21.960;2023-09-19T04:55:16;18.00;99.90
68485;DHT22;55472;50.060;21.960;2023-09-19T04:57:52;18.10;99.90
68485;DHT22;55472;50.060;21.960;2023-09-19T05:00:21;18.00;99.90
68485;DHT22;55472;50.060;21.960;2023-09-19T05:02:57;18.00;99.90
68485;DHT22;55472;50.060;21.960;2023-09-19T05:05:23;18.10;99.90
68485;DHT22;55472;50.060;21.960;2023-09-19T05:07:52;18.10;99.90
68485;DHT22;55472;50.060;21.960;2023-09-19T05:10:20;18.10;99.90
68485;DHT22;55472;50.060;21.960;2023-09-19T05:12:46;18.10;99.90
68485;DHT22;55472;50.060;21.960;2023-09-19T05:15:14;18.00;99.90
68485;DHT22;55472;50.060;21.960;2023-09-19T05:17:41;18.00;99.90
68485;DHT22;55472;50.060;21.960;2023-09-19T05:20:08;18.00;99.90
68485;DHT22;55472;50.060;21.960;2023-09-19T05:23:07;18.00;99.90
68485;DHT22;55472;50.060;21.960;2023-09-19T05:25:38;18.00;99.90
68485;DHT22;55472;50.060;21.960;2023-09-19T05:28:06;18.00;99.90
68485;DHT22;55472;50.060;21.960;2023-09-19T05:30:34;18.00;99.90
68485;DHT22;55472;50.060;21.960;2023-09-19T05:33:09;18.00;99.90
68485;DHT22;55472;50.060;21.960;2023-09-19T05:35:35;18.00;99.90
68485;DHT22;55472;50.060;21.960;2023-09-19T05:38:07;18.00;99.90
68485;DHT22;55472;50.060;21.960;2023-09-19T05:40:38;18.00;99.90
68485;DHT22;55472;50.060;21.960;2023-09-19T05:43:08;18.00;99.90
68485;DHT22;55472;50.060;21.960;2023-09-19T05:45:34;18.10;99.90
68485;DHT22;55472;50.060;21.960;2023-09-19T05:48:10;18.00;99.90
68485;DHT22;55472;50.060;21.960;2023-09-19T05:50:39;18.10;99.90
68485;DHT22;55472;50.060;21.960;2023-09-19T05:53:06;18.10;99.90
68485;DHT22;55472;50.060;21.960;2023-09-19T05:55:33;18.10;99.90
68485;DHT22;55472;50.060;21.960;2023-09-19T05:57:59;18.10;99.90
68485;DHT22;55472;50.060;21.960;2023-09-19T06:00:26;18.20;99.90
68485;DHT22;55472;50.060;21.960;2023-09-19T06:02:58;18.20;99.90
68485;DHT22;55472;50.060;21.960;2023-09-19T06:05:26;18.20;99.90
68485;DHT22;55472;50.060;21.960;2023-09-19T06:07:53;18.20;99.90
68485;DHT22;55472;50.060;21.960;2023-09-19T06:10:20;18.20;99.90
68485;DHT22;55472;50.060;21.960;2023-09-19T06:12:52;18.20;99.90
68485;DHT22;55472;50.060;21.960;2023-09-19T06:15:21;18.20;99.90
68485;DHT22;55472;50.060;21.960;2023-09-19T06:17:55;18.20;99.90
68485;DHT22;55472;50.060;21.960;2023-09-19T06:20:23;18.20;99.90
68485;DHT22;55472;50.060;21.960;2023-09-19T06:22:51;18.20;99.90
68485;DHT22;55472;50.060;21.960;2023-09-19T06:25:17;18.20;99.90
68485;DHT22;55472;50.060;21.960;2023-09-19T06:27:52;18.20;99.90
68485;DHT22;55472;50.060;21.960;2023-09-19T06:30:20;18.30;99.90
68485;DHT22;55472;50.060;21.960;2023-09-19T06:32:48;18.30;99.90
68485;DHT22;55472;50.060;21.960;2023-09-19T06:35:16;18.20;99.90
68485;DHT22;55472;50.060;21.960;2023-09-19T06:37:43;18.20;99.90
68485;DHT22;55472;50.060;21.960;2023-09-19T06:40:13;18.30;99.90
68485;DHT22;55472;50.060;21.960;2023-09-19T06:42:49;18.30;99.90
68485;DHT22;55472;50.060;21.960;2023-09-19T06:45:16;18.30;99.90
68485;DHT22;55472;50.060;21.960;2023-09-19T06:47:51;18.30;99.90
68485;DHT22;55472;50.060;21.960;2023-09-19T06:50:18;18.40;99.90
68485;DHT22;55472;50.060;21.960;2023-09-19T06:53:44;18.40;99.90
68485;DHT22;55472;50.060;21.960;2023-09-19T06:56:03;18.40;99.90
68485;DHT22;55472;50.060;21.960;2023-09-19T06:58:29;18.40;99.90
68485;DHT22;55472;50.060;21.960;2023-09-19T07:00:57;18.40;99.90
68485;DHT22;55472;50.060;21.960;2023-09-19T07:03:23;18.30;99.90
68485;DHT22;55472;50.060;21.960;2023-09-19T07:05:55;18.30;99.90
68485;DHT22;55472;50.060;21.960;2023-09-19T07:08:21;18.30;99.90
68485;DHT22;55472;50.060;21.960;2023-09-19T07:10:48;18.30;99.90
68485;DHT22;55472;50.060;21.960;2023-09-19T07:13:15;18.40;99.90
68485;DHT22;55472;50.060;21.960;2023-09-19T07:15:45;18.50;99.90
68485;DHT22;55472;50.060;21.960;2023-09-19T07:18:34;18.50;99.90
68485;DHT22;55472;50.060;21.960;2023-09-19T07:21:00;18.60;99.90
68485;DHT22;55472;50.060;21.960;2023-09-19T07:23:30;18.70;99.90
68485;DHT22;55472;50.060;21.960;2023-09-19T07:26:07;18.80;99.90
68485;DHT22;55472;50.060;21.960;2023-09-19T07:29:00;18.90;99.90
68485;DHT22;55472;50.060;21.960;2023-09-19T07:32:15;18.90;99.90
68485;DHT22;55472;50.060;21.960;2023-09-19T07:36:40;19.00;99.90
68485;DHT22;55472;50.060;21.960;2023-09-19T07:39:55;19.10;99.90
68485;DHT22;55472;50.060;21.960;2023-09-19T07:42:49;19.10;99.90
68485;DHT22;55472;50.060;21.960;2023-09-19T07:45:21;19.10;99.90
68485;DHT22;55472;50.060;21.960;2023-09-19T07:48:12;19.10;99.90
68485;DHT22;55472;50.060;21.960;2023-09-19T07:51:08;19.00;99.90
68485;DHT22;55472;50.060;21.960;2023-09-19T07:53:56;19.00;99.90
68485;DHT22;55472;50.060;21.960;2023-09-19T07:56:25;18.90;99.90
68485;DHT22;55472;50.060;21.960;2023-09-19T07:58:58;18.90;99.90
68485;DHT22;55472;50.060;21.960;2023-09-19T08:01:36;18.90;99.90
68485;DHT22;55472;50.060;21.960;2023-09-19T08:04:15;18.90;99.90
68485;DHT22;55472;50.060;21.960;2023-09-19T08:07:06;18.90;99.90
68485;DHT22;55472;50.060;21.960;2023-09-19T08:09:50;18.90;99.90
68485;DHT22;55472;50.060;21.960;2023-09-19T08:13:00;18.90;99.90
68485;DHT22;55472;50.060;21.960;2023-09-19T08:15:35;18.90;99.90
68485;DHT22;55472;50.060;21.960;2023-09-19T08:18:01;18.80;99.90
68485;DHT22;55472;50.060;21.960;2023-09-19T08:20:27;18.80;99.90
68485;DHT22;55472;50.060;21.960;2023-09-19T08:22:54;18.80;99.90
68485;DHT22;55472;50.060;21.960;2023-09-19T08:25:23;18.80;99.90
68485;DHT22;55472;50.060;21.960;2023-09-19T08:27:51;18.70;99.90
68485;DHT22;55472;50.060;21.960;2023-09-19T08:30:19;18.70;99.90
68485;DHT22;55472;50.060;21.960;2023-09-19T08:32:50;18.70;99.90
68485;DHT22;55472;50.060;21.960;2023-09-19T08:35:16;18.70;99.90
68485;DHT22;55472;50.060;21.960;2023-09-19T08:37:43;18.70;99.90
68485;DHT22;55472;50.060;21.960;2023-09-19T08:40:12;18.70;99.90
68485;DHT22;55472;50.060;21.960;2023-09-19T08:45:15;18.70;99.90
68485;DHT22;55472;50.060;21.960;2023-09-19T08:47:47;18.70;99.90
68485;DHT22;55472;50.060;21.960;2023-09-19T08:50:26;18.60;99.90
68485;DHT22;55472;50.060;21.960;2023-09-19T08:52:55;18.60;99.90
68485;DHT22;55472;50.060;21.960;2023-09-19T08:55:32;18.60;99.90
68485;DHT22;55472;50.060;21.960;2023-09-19T08:58:03;18.60;99.90
68485;DHT22;55472;50.060;21.960;2023-09-19T09:00:33;18.60;99.90
68485;DHT22;55472;50.060;21.960;2023-09-19T09:03:01;18.60;99.90
68485;DHT22;55472;50.060;21.960;2023-09-19T09:05:30;18.60;99.90
68485;DHT22;55472;50.060;21.960;2023-09-19T09:07:58;18.60;99.90
68485;DHT22;55472;50.060;21.960;2023-09-19T09:10:25;18.60;99.90
68485;DHT22;55472;50.060;21.960;2023-09-19T09:12:53;18.60;99.90
68485;DHT22;55472;50.060;21.960;2023-09-19T09:15:23;18.60;99.90
68485;DHT22;55472;50.060;21.960;2023-09-19T09:17:51;18.70;99.90
68485;DHT22;55472;50.060;21.960;2023-09-19T09:20:19;18.70;99.90
68485;DHT22;55472;50.060;21.960;2023-09-19T09:22:55;18.70;99.90
68485;DHT22;55472;50.060;21.960;2023-09-19T09:25:54;18.70;99.90
68485;DHT22;55472;50.060;21.960;2023-09-19T09:28:34;18.70;99.90
68485;DHT22;55472;50.060;21.960;2023-09-19T09:31:02;18.70;99.90
68485;DHT22;55472;50.060;21.960;2023-09-19T09:33:34;18.70;99.90
68485;DHT22;55472;50.060;21.960;2023-09-19T09:36:02;18.60;99.90
68485;DHT22;55472;50.060;21.960;2023-09-19T09:38:47;18.60;99.90
68485;DHT22;55472;50.060;21.960;2023-09-19T09:41:16;18.60;99.90
68485;DHT22;55472;50.060;21.960;2023-09-19T09:43:53;18.50;99.90
68485;DHT22;55472;50.060;21.960;2023-09-19T09:46:21;18.50;99.90
68485;DHT22;55472;50.060;21.960;2023-09-19T09:48:58;18.50;99.90
68485;DHT22;55472;50.060;21.960;2023-09-19T09:51:49;18.50;99.90
68485;DHT22;55472;50.060;21.960;2023-09-19T09:54:26;18.40;99.90
68485;DHT22;55472;50.060;21.960;2023-09-19T09:57:10;18.40;99.90
68485;DHT22;55472;50.060;21.960;2023-09-19T10:02:20;18.40;99.90
68485;DHT22;55472;50.060;21.960;2023-09-19T10:05:16;18.30;99.90
68485;DHT22;55472;50.060;21.960;2023-09-19T10:07:43;18.30;99.90
68485;DHT22;55472;50.060;21.960;2023-09-19T10:10:34;18.20;99.90
68485;DHT22;55472;50.060;21.960;2023-09-19T10:13:13;18.10;99.90
68485;DHT22;55472;50.060;21.960;2023-09-19T10:15:47;18.00;99.90
68485;DHT22;55472;50.060;21.960;2023-09-19T10:18:23;18.00;99.90
68485;DHT22;55472;50.060;21.960;2023-09-19T10:20:51;17.80;99.90
68485;DHT22;55472;50.060;21.960;2023-09-19T10:23:25;17.70;99.90
68485;DHT22;55472;50.060;21.960;2023-09-19T10:25:56;17.60;99.90
68485;DHT22;55472;50.060;21.960;2023-09-19T10:28:23;17.50;99.90
68485;DHT22;55472;50.060;21.960;2023-09-19T10:30:55;17.30;99.90
68485;DHT22;55472;50.060;21.960;2023-09-19T10:33:23;17.20;99.90
68485;DHT22;55472;50.060;21.960;2023-09-19T10:35:54;17.10;99.90
68485;DHT22;55472;50.060;21.960;2023-09-19T10:38:27;17.00;99.90
68485;DHT22;55472;50.060;21.960;2023-09-19T10:40:56;17.00;99.90
68485;DHT22;55472;50.060;21.960;2023-09-19T10:43:29;16.90;99.90
68485;DHT22;55472;50.060;21.960;2023-09-19T10:46:01;16.90;99.90
68485;DHT22;55472;50.060;21.960;2023-09-19T10:48:31;16.90;99.90
68485;DHT22;55472;50.060;21.960;2023-09-19T10:51:02;16.90;99.90
68485;DHT22;55472;50.060;21.960;2023-09-19T10:53:43;16.90;99.90
68485;DHT22;55472;50.060;21.960;2023-09-19T10:56:21;16.90;99.90
68485;DHT22;55472;50.060;21.960;2023-09-19T10:58:50;16.90;99.90
68485;DHT22;55472;50.060;21.960;2023-09-19T11:01:17;16.90;99.90
68485;DHT22;55472;50.060;21.960;2023-09-19T11:03:44;16.90;99.90
68485;DHT22;55472;50.060;21.960;2023-09-19T11:06:15;16.90;99.90
68485;DHT22;55472;50.060;21.960;2023-09-19T11:08:54;16.90;99.90
68485;DHT22;55472;50.060;21.960;2023-09-19T11:30:36;17.10;99.90
68485;DHT22;55472;50.060;21.960;2023-09-19T11:33:29;17.10;99.90
68485;DHT22;55472;50.060;21.960;2023-09-19T11:46:30;17.20;99.90
68485;DHT22;55472;50.060;21.960;2023-09-19T11:49:08;17.30;99.90
68485;DHT22;55472;50.060;21.960;2023-09-19T11:51:43;17.30;99.90
68485;DHT22;55472;50.060;21.960;2023-09-19T11:54:12;17.30;99.90
68485;DHT22;55472;50.060;21.960;2023-09-19T11:56:45;17.30;99.90
68485;DHT22;55472;50.060;21.960;2023-09-19T11:59:20;17.30;99.90
68485;DHT22;55472;50.060;21.960;2023-09-19T12:01:57;17.30;99.90
68485;DHT22;55472;50.060;21.960;2023-09-19T12:04:34;17.30;99.90
68485;DHT22;55472;50.060;21.960;2023-09-19T12:07:15;17.30;99.90
68485;DHT22;55472;50.060;21.960;2023-09-19T12:09:43;17.30;99.90
68485;DHT22;55472;50.060;21.960;2023-09-19T12:12:10;17.30;99.90
68485;DHT22;55472;50.060;21.960;2023-09-19T12:14:51;17.30;99.90
68485;DHT22;55472;50.060;21.960;2023-09-19T12:17:18;17.30;99.90
68485;DHT22;55472;50.060;21.960;2023-09-19T12:19:52;17.30;99.90
68485;DHT22;55472;50.060;21.960;2023-09-19T12:22:19;17.30;99.90
68485;DHT22;55472;50.060;21.960;2023-09-19T12:24:49;17.30;99.90
68485;DHT22;55472;50.060;21.960;2023-09-19T12:27:16;17.30;99.90
68485;DHT22;55472;50.060;21.960;2023-09-19T12:29:49;17.30;99.90
68485;DHT22;55472;50.060;21.960;2023-09-19T12:32:15;17.30;99.90
68485;DHT22;55472;50.060;21.960;2023-09-19T12:34:52;17.30;99.90
68485;DHT22;55472;50.060;21.960;2023-09-19T12:37:18;17.30;99.90
68485;DHT22;55472;50.060;21.960;2023-09-19T12:39:50;17.30;99.90
68485;DHT22;55472;50.060;21.960;2023-09-19T12:42:24;17.40;99.90
68485;DHT22;55472;50.060;21.960;2023-09-19T12:44:54;17.40;99.90
68485;DHT22;55472;50.060;21.960;2023-09-19T12:47:27;17.40;99.90
68485;DHT22;55472;50.060;21.960;2023-09-19T12:50:14;17.50;99.90
68485;DHT22;55472;50.060;21.960;2023-09-19T12:52:56;17.50;99.90
68485;DHT22;55472;50.060;21.960;2023-09-19T12:55:25;17.50;99.90
68485;DHT22;55472;50.060;21.960;2023-09-19T13:00:41;17.60;99.90
68485;DHT22;55472;50.060;21.960;2023-09-19T13:03:24;17.60;99.90
68485;DHT22;55472;50.060;21.960;2023-09-19T13:05:56;17.60;99.90
68485;DHT22;55472;50.060;21.960;2023-09-19T13:08:38;17.60;99.90
68485;DHT22;55472;50.060;21.960;2023-09-19T13:11:12;17.60;99.90
68485;DHT22;55472;50.060;21.960;2023-09-19T13:13:51;17.60;99.90
68485;DHT22;55472;50.060;21.960;2023-09-19T13:19:42;17.60;99.90
68485;DHT22;55472;50.060;21.960;2023-09-19T13:25:18;17.60;99.90
68485;DHT22;55472;50.060;21.960;2023-09-19T13:27:55;17.60;99.90
68485;DHT22;55472;50.060;21.960;2023-09-19T13:30:24;17.60;99.90
68485;DHT22;55472;50.060;21.960;2023-09-19T13:32:52;17.60;99.90
68485;DHT22;55472;50.060;21.960;2023-09-19T13:35:19;17.60;99.90
68485;DHT22;55472;50.060;21.960;2023-09-19T13:37:47;17.60;99.90
68485;DHT22;55472;50.060;21.960;2023-09-19T13:40:15;17.60;99.90
68485;DHT22;55472;50.060;21.960;2023-09-19T13:42:42;17.60;99.90
68485;DHT22;55472;50.060;21.960;2023-09-19T13:45:09;17.60;99.90
68485;DHT22;55472;50.060;21.960;2023-09-19T13:47:41;17.60;99.90
68485;DHT22;55472;50.060;21.960;2023-09-19T13:50:08;17.60;99.90
68485;DHT22;55472;50.060;21.960;2023-09-19T13:52:35;17.60;99.90
68485;DHT22;55472;50.060;21.960;2023-09-19T13:55:01;17.60;99.90
68485;DHT22;55472;50.060;21.960;2023-09-19T13:57:27;17.60;99.90
68485;DHT22;55472;50.060;21.960;2023-09-19T13:59:55;17.60;99.90
68485;DHT22;55472;50.060;21.960;2023-09-19T14:02:22;17.60;99.90
68485;DHT22;55472;50.060;21.960;2023-09-19T14:04:49;17.60;99.90
68485;DHT22;55472;50.060;21.960;2023-09-19T14:07:16;17.60;99.90
68485;DHT22;55472;50.060;21.960;2023-09-19T14:09:44;17.60;99.90
68485;DHT22;55472;50.060;21.960;2023-09-19T14:12:11;17.60;99.90
68485;DHT22;55472;50.060;21.960;2023-09-19T14:14:38;17.60;99.90
68485;DHT22;55472;50.060;21.960;2023-09-19T14:17:04;17.60;99.90
68485;DHT22;55472;50.060;21.960;2023-09-19T14:19:33;17.60;99.90
68485;DHT22;55472;50.060;21.960;2023-09-19T14:22:00;17.70;99.90
68485;DHT22;55472;50.060;21.960;2023-09-19T14:24:33;17.70;99.90
68485;DHT22;55472;50.060;21.960;2023-09-19T14:27:00;17.70;99.90
68485;DHT22;55472;50.060;21.960;2023-09-19T14:29:26;17.70;99.90
68485;DHT22;55472;50.060;21.960;2023-09-19T14:31:52;17.70;99.90
68485;DHT22;55472;50.060;21.960;2023-09-19T14:34:18;17.70;99.90
68485;DHT22;55472;50.060;21.960;2023-09-19T14:36:45;17.70;99.90
68485;DHT22;55472;50.060;21.960;2023-09-19T14:39:12;17.70;99.90
68485;DHT22;55472;50.060;21.960;2023-09-19T14:41:38;17.70;99.90
68485;DHT22;55472;50.060;21.960;2023-09-19T14:44:04;17.80;99.90
68485;DHT22;55472;50.060;21.960;2023-09-19T14:46:31;17.80;99.90
68485;DHT22;55472;50.060;21.960;2023-09-19T14:48:57;17.80;99.90
68485;DHT22;55472;50.060;21.960;2023-09-19T14:51:29;17.80;99.90
68485;DHT22;55472;50.060;21.960;2023-09-19T14:53:55;17.80;99.90
68485;DHT22;55472;50.060;21.960;2023-09-19T14:56:22;17.80;99.90
68485;DHT22;55472;50.060;21.960;2023-09-19T14:58:51;17.80;99.90
68485;DHT22;55472;50.060;21.960;2023-09-19T15:01:17;17.80;99.90
68485;DHT22;55472;50.060;21.960;2023-09-19T15:03:43;17.80;99.90
68485;DHT22;55472;50.060;21.960;2023-09-19T15:06:11;17.80;99.90
68485;DHT22;55472;50.060;21.960;2023-09-19T15:08:41;17.80;99.90
68485;DHT22;55472;50.060;21.960;2023-09-19T15:11:12;17.80;99.90
68485;DHT22;55472;50.060;21.960;2023-09-19T15:13:39;17.80;99.90
68485;DHT22;55472;50.060;21.960;2023-09-19T15:16:06;17.80;99.90
68485;DHT22;55472;50.060;21.960;2023-09-19T15:18:43;17.80;99.90
68485;DHT22;55472;50.060;21.960;2023-09-19T15:21:11;17.80;99.90
68485;DHT22;55472;50.060;21.960;2023-09-19T15:23:39;17.80;99.90
68485;DHT22;55472;50.060;21.960;2023-09-19T15:26:09;17.80;99.90
68485;DHT22;55472;50.060;21.960;2023-09-19T15:28:42;17.80;99.90
68485;DHT22;55472;50.060;21.960;2023-09-19T15:31:10;17.80;99.90
68485;DHT22;55472;50.060;21.960;2023-09-19T15:33:37;17.80;99.90
68485;DHT22;55472;50.060;21.960;2023-09-19T15:36:05;17.80;99.90
68485;DHT22;55472;50.060;21.960;2023-09-19T15:38:32;17.80;99.90
68485;DHT22;55472;50.060;21.960;2023-09-19T15:41:20;17.80;99.90
68485;DHT22;55472;50.060;21.960;2023-09-19T15:43:49;17.80;99.90
68485;DHT22;55472;50.060;21.960;2023-09-19T15:46:15;17.80;99.90
68485;DHT22;55472;50.060;21.960;2023-09-19T15:48:42;17.80;99.90
68485;DHT22;55472;50.060;21.960;2023-09-19T15:51:08;17.80;99.90
68485;DHT22;55472;50.060;21.960;2023-09-19T15:53:44;17.80;99.90
68485;DHT22;55472;50.060;21.960;2023-09-19T15:56:12;17.80;99.90
68485;DHT22;55472;50.060;21.960;2023-09-19T15:58:44;17.80;99.90
68485;DHT22;55472;50.060;21.960;2023-09-19T16:01:11;17.80;99.90
68485;DHT22;55472;50.060;21.960;2023-09-19T16:03:38;17.80;99.90
68485;DHT22;55472;50.060;21.960;2023-09-19T16:06:17;17.80;99.90
68485;DHT22;55472;50.060;21.960;2023-09-19T16:08:46;17.80;99.90
68485;DHT22;55472;50.060;21.960;2023-09-19T16:11:14;17.80;99.90
68485;DHT22;55472;50.060;21.960;2023-09-19T16:13:41;17.80;99.90
68485;DHT22;55472;50.060;21.960;2023-09-19T16:16:09;17.70;99.90
68485;DHT22;55472;50.060;21.960;2023-09-19T16:18:38;17.80;99.90
68485;DHT22;55472;50.060;21.960;2023-09-19T16:21:37;17.70;99.90
68485;DHT22;55472;50.060;21.960;2023-09-19T16:24:07;17.70;99.90
68485;DHT22;55472;50.060;21.960;2023-09-19T16:26:36;17.70;99.90
68485;DHT22;55472;50.060;21.960;2023-09-19T16:29:02;17.70;99.90
68485;DHT22;55472;50.060;21.960;2023-09-19T16:31:30;17.70;99.90
68485;DHT22;55472;50.060;21.960;2023-09-19T16:33:58;17.70;99.90
68485;DHT22;55472;50.060;21.960;2023-09-19T16:36:28;17.70;99.90
68485;DHT22;55472;50.060;21.960;2023-09-19T16:38:57;17.70;99.90
68485;DHT22;55472;50.060;21.960;2023-09-19T16:41:25;17.70;99.90
68485;DHT22;55472;50.060;21.960;2023-09-19T16:43:51;17.60;99.90